Ruidoso, New Mexico
Current Conditions -  °F | °C
As of 9:55 PM on Thursday 25 Dec 2014 (Local Time) from KSRR Reporting Station
Clear Clear  
Wind Chill: 32°   Ceiling: Unl
Heat Index: 43°   Visibility: 10mi
Dew Point: 16°   Wind: 30mph
Humidity: 34%   Direction: 230°SW
Pressure: 29.74"   Gusts: 39mph
Location:  33.45°N, 105.52°W
Report Text: KSRR 260455Z AUTO 23026G34KT 10SM CLR 06/M09 A2974 RMK AO2
Loading
Personal Weather Stations






























Interactive Weather Map New forecast layout! Learn more

10-Day Weather Forecast

Advertisements
Track Severe Weather on mobile